sensor_id;sensor_type;location;lat;lon;timestamp;P1;durP1;ratioP1;P2;durP2;ratioP2
18320;SDS011;54904;54.350;18.664;2022-07-29T00:00:55;1.13;;;0.70;;
18320;SDS011;54904;54.350;18.664;2022-07-29T00:03:22;0.60;;;0.60;;
18320;SDS011;54904;54.350;18.664;2022-07-29T00:05:49;0.65;;;0.65;;
18320;SDS011;54904;54.350;18.664;2022-07-29T00:08:18;0.85;;;0.60;;
18320;SDS011;54904;54.350;18.664;2022-07-29T00:10:45;0.88;;;0.88;;
18320;SDS011;54904;54.350;18.664;2022-07-29T00:13:12;0.50;;;0.50;;
18320;SDS011;54904;54.350;18.664;2022-07-29T00:15:39;1.13;;;0.70;;
18320;SDS011;54904;54.350;18.664;2022-07-29T00:18:06;2.35;;;0.80;;
18320;SDS011;54904;54.350;18.664;2022-07-29T00:20:33;0.82;;;0.55;;
18320;SDS011;54904;54.350;18.664;2022-07-29T00:23:00;0.80;;;0.80;;
18320;SDS011;54904;54.350;18.664;2022-07-29T00:25:29;0.75;;;0.70;;
18320;SDS011;54904;54.350;18.664;2022-07-29T00:27:56;0.52;;;0.52;;
18320;SDS011;54904;54.350;18.664;2022-07-29T00:30:23;0.60;;;0.60;;
18320;SDS011;54904;54.350;18.664;2022-07-29T00:32:50;0.45;;;0.45;;
18320;SDS011;54904;54.350;18.664;2022-07-29T00:35:17;1.23;;;0.60;;
18320;SDS011;54904;54.350;18.664;2022-07-29T00:38:01;1.35;;;0.65;;
18320;SDS011;54904;54.350;18.664;2022-07-29T00:40:29;0.60;;;0.60;;
18320;SDS011;54904;54.350;18.664;2022-07-29T00:42:56;2.05;;;0.88;;
18320;SDS011;54904;54.350;18.664;2022-07-29T00:45:23;1.35;;;0.60;;
18320;SDS011;54904;54.350;18.664;2022-07-29T00:47:50;0.65;;;0.65;;
18320;SDS011;54904;54.350;18.664;2022-07-29T00:50:17;0.55;;;0.55;;
18320;SDS011;54904;54.350;18.664;2022-07-29T00:52:44;0.55;;;0.55;;
18320;SDS011;54904;54.350;18.664;2022-07-29T00:55:12;0.70;;;0.70;;
18320;SDS011;54904;54.350;18.664;2022-07-29T00:57:43;0.68;;;0.68;;
18320;SDS011;54904;54.350;18.664;2022-07-29T01:00:11;0.80;;;0.80;;
18320;SDS011;54904;54.350;18.664;2022-07-29T01:02:40;0.68;;;0.68;;
18320;SDS011;54904;54.350;18.664;2022-07-29T01:05:07;0.60;;;0.60;;
18320;SDS011;54904;54.350;18.664;2022-07-29T01:07:35;0.85;;;0.70;;
18320;SDS011;54904;54.350;18.664;2022-07-29T01:10:03;0.60;;;0.60;;
18320;SDS011;54904;54.350;18.664;2022-07-29T01:12:32;0.65;;;0.55;;
18320;SDS011;54904;54.350;18.664;2022-07-29T01:15:03;0.60;;;0.60;;
18320;SDS011;54904;54.350;18.664;2022-07-29T01:17:33;0.88;;;0.80;;
18320;SDS011;54904;54.350;18.664;2022-07-29T01:20:06;0.95;;;0.75;;
18320;SDS011;54904;54.350;18.664;2022-07-29T01:22:42;1.33;;;0.73;;
18320;SDS011;54904;54.350;18.664;2022-07-29T01:25:37;0.77;;;0.77;;
18320;SDS011;54904;54.350;18.664;2022-07-29T01:28:44;0.60;;;0.60;;
18320;SDS011;54904;54.350;18.664;2022-07-29T01:31:20;0.70;;;0.70;;
18320;SDS011;54904;54.350;18.664;2022-07-29T01:34:01;0.70;;;0.70;;
18320;SDS011;54904;54.350;18.664;2022-07-29T01:36:32;0.60;;;0.60;;
18320;SDS011;54904;54.350;18.664;2022-07-29T01:39:04;0.80;;;0.70;;
18320;SDS011;54904;54.350;18.664;2022-07-29T01:41:35;1.48;;;0.90;;
18320;SDS011;54904;54.350;18.664;2022-07-29T01:44:15;0.63;;;0.63;;
18320;SDS011;54904;54.350;18.664;2022-07-29T01:46:47;0.52;;;0.52;;
18320;SDS011;54904;54.350;18.664;2022-07-29T01:49:20;2.50;;;0.73;;
18320;SDS011;54904;54.350;18.664;2022-07-29T01:51:51;0.70;;;0.70;;
18320;SDS011;54904;54.350;18.664;2022-07-29T01:54:21;0.60;;;0.60;;
18320;SDS011;54904;54.350;18.664;2022-07-29T01:56:55;0.68;;;0.68;;
18320;SDS011;54904;54.350;18.664;2022-07-29T01:59:26;0.70;;;0.70;;
18320;SDS011;54904;54.350;18.664;2022-07-29T02:01:57;1.98;;;0.90;;
18320;SDS011;54904;54.350;18.664;2022-07-29T02:04:25;0.70;;;0.70;;
18320;SDS011;54904;54.350;18.664;2022-07-29T02:06:57;0.60;;;0.60;;
18320;SDS011;54904;54.350;18.664;2022-07-29T02:09:28;1.42;;;0.80;;
18320;SDS011;54904;54.350;18.664;2022-07-29T02:11:56;0.65;;;0.65;;
18320;SDS011;54904;54.350;18.664;2022-07-29T02:14:28;0.80;;;0.80;;
18320;SDS011;54904;54.350;18.664;2022-07-29T02:16:59;0.70;;;0.68;;
18320;SDS011;54904;54.350;18.664;2022-07-29T02:19:28;0.60;;;0.60;;
18320;SDS011;54904;54.350;18.664;2022-07-29T02:21:56;0.70;;;0.70;;
18320;SDS011;54904;54.350;18.664;2022-07-29T02:24:25;0.80;;;0.70;;
18320;SDS011;54904;54.350;18.664;2022-07-29T02:26:53;0.50;;;0.50;;
18320;SDS011;54904;54.350;18.664;2022-07-29T02:29:22;0.63;;;0.63;;
18320;SDS011;54904;54.350;18.664;2022-07-29T02:31:54;1.15;;;0.70;;
18320;SDS011;54904;54.350;18.664;2022-07-29T02:34:23;0.90;;;0.90;;
18320;SDS011;54904;54.350;18.664;2022-07-29T02:36:51;1.02;;;1.00;;
18320;SDS011;54904;54.350;18.664;2022-07-29T02:39:20;0.73;;;0.73;;
18320;SDS011;54904;54.350;18.664;2022-07-29T02:41:50;0.90;;;0.90;;
18320;SDS011;54904;54.350;18.664;2022-07-29T02:44:21;1.48;;;0.75;;
18320;SDS011;54904;54.350;18.664;2022-07-29T02:46:51;0.95;;;0.80;;
18320;SDS011;54904;54.350;18.664;2022-07-29T02:49:27;1.05;;;0.80;;
18320;SDS011;54904;54.350;18.664;2022-07-29T02:52:01;0.73;;;0.73;;
18320;SDS011;54904;54.350;18.664;2022-07-29T02:54:31;0.68;;;0.65;;
18320;SDS011;54904;54.350;18.664;2022-07-29T02:57:05;1.20;;;1.10;;
18320;SDS011;54904;54.350;18.664;2022-07-29T02:59:37;1.45;;;0.90;;
18320;SDS011;54904;54.350;18.664;2022-07-29T03:02:09;0.70;;;0.70;;
18320;SDS011;54904;54.350;18.664;2022-07-29T03:04:39;0.70;;;0.70;;
18320;SDS011;54904;54.350;18.664;2022-07-29T03:07:09;0.98;;;0.85;;
18320;SDS011;54904;54.350;18.664;2022-07-29T03:09:40;1.35;;;1.17;;
18320;SDS011;54904;54.350;18.664;2022-07-29T03:12:08;0.90;;;0.90;;
18320;SDS011;54904;54.350;18.664;2022-07-29T03:14:35;0.90;;;0.90;;
18320;SDS011;54904;54.350;18.664;2022-07-29T03:17:03;1.63;;;1.00;;
18320;SDS011;54904;54.350;18.664;2022-07-29T03:19:31;0.80;;;0.80;;
18320;SDS011;54904;54.350;18.664;2022-07-29T03:21:59;0.80;;;0.80;;
18320;SDS011;54904;54.350;18.664;2022-07-29T03:24:30;1.10;;;1.00;;
18320;SDS011;54904;54.350;18.664;2022-07-29T03:26:57;1.17;;;1.00;;
18320;SDS011;54904;54.350;18.664;2022-07-29T03:29:25;1.13;;;1.02;;
18320;SDS011;54904;54.350;18.664;2022-07-29T03:31:52;1.27;;;0.77;;
18320;SDS011;54904;54.350;18.664;2022-07-29T03:34:20;1.27;;;1.17;;
18320;SDS011;54904;54.350;18.664;2022-07-29T03:36:48;1.63;;;0.90;;
18320;SDS011;54904;54.350;18.664;2022-07-29T03:39:16;1.25;;;1.15;;
18320;SDS011;54904;54.350;18.664;2022-07-29T03:41:46;1.10;;;1.00;;
18320;SDS011;54904;54.350;18.664;2022-07-29T03:44:16;1.27;;;1.17;;
18320;SDS011;54904;54.350;18.664;2022-07-29T03:46:44;0.93;;;0.93;;
18320;SDS011;54904;54.350;18.664;2022-07-29T03:49:14;1.38;;;1.27;;
18320;SDS011;54904;54.350;18.664;2022-07-29T03:51:43;1.98;;;1.20;;
18320;SDS011;54904;54.350;18.664;2022-07-29T03:54:11;1.60;;;1.27;;
18320;SDS011;54904;54.350;18.664;2022-07-29T03:56:39;1.10;;;1.00;;
18320;SDS011;54904;54.350;18.664;2022-07-29T03:59:11;1.38;;;1.35;;
18320;SDS011;54904;54.350;18.664;2022-07-29T04:01:40;1.45;;;1.25;;
18320;SDS011;54904;54.350;18.664;2022-07-29T04:04:08;1.10;;;1.00;;
18320;SDS011;54904;54.350;18.664;2022-07-29T04:06:39;1.77;;;1.13;;
18320;SDS011;54904;54.350;18.664;2022-07-29T04:09:06;3.50;;;1.42;;
18320;SDS011;54904;54.350;18.664;2022-07-29T04:11:35;1.00;;;0.90;;
18320;SDS011;54904;54.350;18.664;2022-07-29T04:14:03;1.67;;;1.15;;
18320;SDS011;54904;54.350;18.664;2022-07-29T04:16:31;3.03;;;1.33;;
18320;SDS011;54904;54.350;18.664;2022-07-29T04:18:58;1.50;;;1.40;;
18320;SDS011;54904;54.350;18.664;2022-07-29T04:21:25;2.53;;;1.20;;
18320;SDS011;54904;54.350;18.664;2022-07-29T04:23:52;1.80;;;1.27;;
18320;SDS011;54904;54.350;18.664;2022-07-29T04:26:20;1.20;;;1.10;;
18320;SDS011;54904;54.350;18.664;2022-07-29T04:28:48;1.05;;;1.00;;
18320;SDS011;54904;54.350;18.664;2022-07-29T04:31:15;1.13;;;1.13;;
18320;SDS011;54904;54.350;18.664;2022-07-29T04:33:42;2.70;;;1.05;;
18320;SDS011;54904;54.350;18.664;2022-07-29T04:36:09;1.15;;;1.13;;
18320;SDS011;54904;54.350;18.664;2022-07-29T04:38:37;1.17;;;1.13;;
18320;SDS011;54904;54.350;18.664;2022-07-29T04:41:04;1.50;;;1.20;;
18320;SDS011;54904;54.350;18.664;2022-07-29T04:43:33;2.15;;;1.38;;
18320;SDS011;54904;54.350;18.664;2022-07-29T04:46:02;1.52;;;1.20;;
18320;SDS011;54904;54.350;18.664;2022-07-29T04:48:30;2.45;;;1.85;;
18320;SDS011;54904;54.350;18.664;2022-07-29T04:50:57;3.83;;;2.58;;
18320;SDS011;54904;54.350;18.664;2022-07-29T04:53:24;2.53;;;2.30;;
18320;SDS011;54904;54.350;18.664;2022-07-29T04:55:51;2.33;;;1.83;;
18320;SDS011;54904;54.350;18.664;2022-07-29T04:58:18;3.00;;;1.90;;
18320;SDS011;54904;54.350;18.664;2022-07-29T05:00:45;7.57;;;2.03;;
18320;SDS011;54904;54.350;18.664;2022-07-29T05:03:13;2.10;;;1.88;;
18320;SDS011;54904;54.350;18.664;2022-07-29T05:05:40;2.85;;;1.75;;
18320;SDS011;54904;54.350;18.664;2022-07-29T05:08:07;3.15;;;1.42;;
18320;SDS011;54904;54.350;18.664;2022-07-29T05:10:34;5.78;;;1.58;;
18320;SDS011;54904;54.350;18.664;2022-07-29T05:13:03;5.80;;;2.00;;
18320;SDS011;54904;54.350;18.664;2022-07-29T05:15:31;2.20;;;1.63;;
18320;SDS011;54904;54.350;18.664;2022-07-29T05:17:58;2.42;;;1.38;;
18320;SDS011;54904;54.350;18.664;2022-07-29T05:20:27;2.55;;;1.38;;
18320;SDS011;54904;54.350;18.664;2022-07-29T05:22:55;2.00;;;1.48;;
18320;SDS011;54904;54.350;18.664;2022-07-29T05:25:22;2.35;;;1.45;;
18320;SDS011;54904;54.350;18.664;2022-07-29T05:27:49;1.48;;;1.38;;
18320;SDS011;54904;54.350;18.664;2022-07-29T05:30:17;1.00;;;1.00;;
18320;SDS011;54904;54.350;18.664;2022-07-29T05:32:44;0.80;;;0.80;;
18320;SDS011;54904;54.350;18.664;2022-07-29T05:35:11;2.60;;;1.10;;
18320;SDS011;54904;54.350;18.664;2022-07-29T05:37:40;1.50;;;1.40;;
18320;SDS011;54904;54.350;18.664;2022-07-29T05:40:07;2.90;;;1.20;;
18320;SDS011;54904;54.350;18.664;2022-07-29T05:42:35;1.52;;;1.20;;
18320;SDS011;54904;54.350;18.664;2022-07-29T05:45:02;1.10;;;0.88;;
18320;SDS011;54904;54.350;18.664;2022-07-29T05:47:30;1.30;;;1.20;;
18320;SDS011;54904;54.350;18.664;2022-07-29T05:49:57;2.83;;;1.15;;
18320;SDS011;54904;54.350;18.664;2022-07-29T05:52:24;1.95;;;1.20;;
18320;SDS011;54904;54.350;18.664;2022-07-29T05:54:52;1.67;;;1.30;;
18320;SDS011;54904;54.350;18.664;2022-07-29T05:57:20;2.72;;;1.10;;
18320;SDS011;54904;54.350;18.664;2022-07-29T05:59:48;2.45;;;1.10;;
18320;SDS011;54904;54.350;18.664;2022-07-29T06:02:16;2.30;;;1.15;;
18320;SDS011;54904;54.350;18.664;2022-07-29T06:04:43;0.82;;;0.82;;
18320;SDS011;54904;54.350;18.664;2022-07-29T06:07:10;0.73;;;0.60;;
18320;SDS011;54904;54.350;18.664;2022-07-29T06:09:37;0.65;;;0.65;;
18320;SDS011;54904;54.350;18.664;2022-07-29T06:12:06;1.42;;;1.00;;
18320;SDS011;54904;54.350;18.664;2022-07-29T06:14:33;0.98;;;0.93;;
18320;SDS011;54904;54.350;18.664;2022-07-29T06:17:00;0.95;;;0.70;;
18320;SDS011;54904;54.350;18.664;2022-07-29T06:19:27;5.03;;;0.80;;
18320;SDS011;54904;54.350;18.664;2022-07-29T06:21:54;1.88;;;0.82;;
18320;SDS011;54904;54.350;18.664;2022-07-29T06:24:21;1.65;;;0.80;;
18320;SDS011;54904;54.350;18.664;2022-07-29T06:26:48;0.80;;;0.80;;
18320;SDS011;54904;54.350;18.664;2022-07-29T06:29:17;1.65;;;0.90;;
18320;SDS011;54904;54.350;18.664;2022-07-29T06:31:46;2.00;;;0.80;;
18320;SDS011;54904;54.350;18.664;2022-07-29T06:34:14;0.77;;;0.77;;
18320;SDS011;54904;54.350;18.664;2022-07-29T06:36:41;0.80;;;0.80;;
18320;SDS011;54904;54.350;18.664;2022-07-29T06:39:08;1.30;;;0.60;;
18320;SDS011;54904;54.350;18.664;2022-07-29T06:41:35;0.70;;;0.70;;
18320;SDS011;54904;54.350;18.664;2022-07-29T06:44:08;0.70;;;0.70;;
18320;SDS011;54904;54.350;18.664;2022-07-29T06:46:36;0.70;;;0.70;;
18320;SDS011;54904;54.350;18.664;2022-07-29T06:49:03;0.70;;;0.70;;
18320;SDS011;54904;54.350;18.664;2022-07-29T06:51:30;0.98;;;0.70;;
18320;SDS011;54904;54.350;18.664;2022-07-29T06:53:57;1.00;;;0.77;;
18320;SDS011;54904;54.350;18.664;2022-07-29T06:56:25;1.38;;;0.80;;
18320;SDS011;54904;54.350;18.664;2022-07-29T06:58:52;1.10;;;0.60;;
18320;SDS011;54904;54.350;18.664;2022-07-29T07:01:19;2.22;;;0.82;;
18320;SDS011;54904;54.350;18.664;2022-07-29T07:03:48;1.80;;;0.90;;
18320;SDS011;54904;54.350;18.664;2022-07-29T07:06:15;0.77;;;0.77;;
18320;SDS011;54904;54.350;18.664;2022-07-29T07:08:42;0.70;;;0.70;;
18320;SDS011;54904;54.350;18.664;2022-07-29T07:11:09;0.47;;;0.47;;
18320;SDS011;54904;54.350;18.664;2022-07-29T07:13:36;1.98;;;0.65;;
18320;SDS011;54904;54.350;18.664;2022-07-29T07:16:03;2.35;;;0.80;;
18320;SDS011;54904;54.350;18.664;2022-07-29T07:18:31;1.20;;;0.68;;
18320;SDS011;54904;54.350;18.664;2022-07-29T07:20:59;0.40;;;0.40;;
18320;SDS011;54904;54.350;18.664;2022-07-29T07:23:26;0.80;;;0.50;;
18320;SDS011;54904;54.350;18.664;2022-07-29T07:25:53;0.60;;;0.50;;
18320;SDS011;54904;54.350;18.664;2022-07-29T07:28:20;0.60;;;0.60;;
18320;SDS011;54904;54.350;18.664;2022-07-29T07:30:47;1.42;;;0.65;;
18320;SDS011;54904;54.350;18.664;2022-07-29T07:33:14;0.45;;;0.45;;
18320;SDS011;54904;54.350;18.664;2022-07-29T07:35:41;1.60;;;0.73;;
18320;SDS011;54904;54.350;18.664;2022-07-29T07:38:10;0.40;;;0.40;;
18320;SDS011;54904;54.350;18.664;2022-07-29T07:40:38;1.58;;;0.70;;
18320;SDS011;54904;54.350;18.664;2022-07-29T07:43:05;0.60;;;0.60;;
18320;SDS011;54904;54.350;18.664;2022-07-29T07:45:32;0.80;;;0.80;;
18320;SDS011;54904;54.350;18.664;2022-07-29T07:47:59;0.50;;;0.50;;
18320;SDS011;54904;54.350;18.664;2022-07-29T07:50:26;0.52;;;0.52;;
18320;SDS011;54904;54.350;18.664;2022-07-29T07:52:53;0.52;;;0.52;;
18320;SDS011;54904;54.350;18.664;2022-07-29T07:55:24;0.55;;;0.55;;
18320;SDS011;54904;54.350;18.664;2022-07-29T07:57:52;0.70;;;0.60;;
18320;SDS011;54904;54.350;18.664;2022-07-29T08:00:19;0.70;;;0.70;;
18320;SDS011;54904;54.350;18.664;2022-07-29T08:02:46;0.85;;;0.70;;
18320;SDS011;54904;54.350;18.664;2022-07-29T08:05:15;0.45;;;0.45;;
18320;SDS011;54904;54.350;18.664;2022-07-29T08:07:43;1.20;;;0.70;;
18320;SDS011;54904;54.350;18.664;2022-07-29T08:10:11;0.50;;;0.50;;
18320;SDS011;54904;54.350;18.664;2022-07-29T08:12:40;2.75;;;0.50;;
18320;SDS011;54904;54.350;18.664;2022-07-29T08:15:07;0.50;;;0.50;;
18320;SDS011;54904;54.350;18.664;2022-07-29T08:17:35;0.85;;;0.50;;
18320;SDS011;54904;54.350;18.664;2022-07-29T08:20:02;0.52;;;0.52;;
18320;SDS011;54904;54.350;18.664;2022-07-29T08:22:30;0.50;;;0.50;;
18320;SDS011;54904;54.350;18.664;2022-07-29T08:24:57;0.30;;;0.30;;
18320;SDS011;54904;54.350;18.664;2022-07-29T08:27:24;0.60;;;0.60;;
18320;SDS011;54904;54.350;18.664;2022-07-29T08:29:52;0.68;;;0.68;;
18320;SDS011;54904;54.350;18.664;2022-07-29T08:32:21;1.20;;;0.73;;
18320;SDS011;54904;54.350;18.664;2022-07-29T08:34:48;0.45;;;0.45;;
18320;SDS011;54904;54.350;18.664;2022-07-29T08:37:15;0.50;;;0.50;;
18320;SDS011;54904;54.350;18.664;2022-07-29T08:39:42;0.60;;;0.60;;
18320;SDS011;54904;54.350;18.664;2022-07-29T08:42:08;1.40;;;0.70;;
18320;SDS011;54904;54.350;18.664;2022-07-29T08:44:37;0.70;;;0.70;;
18320;SDS011;54904;54.350;18.664;2022-07-29T08:47:06;1.08;;;0.90;;
18320;SDS011;54904;54.350;18.664;2022-07-29T08:49:34;1.00;;;0.65;;
18320;SDS011;54904;54.350;18.664;2022-07-29T08:52:01;1.88;;;0.93;;
18320;SDS011;54904;54.350;18.664;2022-07-29T08:54:29;0.40;;;0.40;;
18320;SDS011;54904;54.350;18.664;2022-07-29T08:56:56;0.73;;;0.70;;
18320;SDS011;54904;54.350;18.664;2022-07-29T08:59:24;0.80;;;0.80;;
18320;SDS011;54904;54.350;18.664;2022-07-29T09:01:53;0.77;;;0.70;;
18320;SDS011;54904;54.350;18.664;2022-07-29T09:04:22;0.90;;;0.70;;
18320;SDS011;54904;54.350;18.664;2022-07-29T09:06:53;1.67;;;0.80;;
18320;SDS011;54904;54.350;18.664;2022-07-29T09:09:23;0.65;;;0.65;;
18320;SDS011;54904;54.350;18.664;2022-07-29T09:11:50;0.60;;;0.60;;
18320;SDS011;54904;54.350;18.664;2022-07-29T09:14:18;0.80;;;0.80;;
18320;SDS011;54904;54.350;18.664;2022-07-29T09:16:46;1.75;;;0.80;;
18320;SDS011;54904;54.350;18.664;2022-07-29T09:19:24;0.60;;;0.60;;
18320;SDS011;54904;54.350;18.664;2022-07-29T09:21:53;3.95;;;0.93;;
18320;SDS011;54904;54.350;18.664;2022-07-29T09:24:23;1.00;;;1.00;;
18320;SDS011;54904;54.350;18.664;2022-07-29T09:26:51;0.80;;;0.80;;
18320;SDS011;54904;54.350;18.664;2022-07-29T09:29:19;0.70;;;0.60;;
18320;SDS011;54904;54.350;18.664;2022-07-29T09:31:48;1.95;;;0.63;;
18320;SDS011;54904;54.350;18.664;2022-07-29T09:34:21;0.80;;;0.80;;
18320;SDS011;54904;54.350;18.664;2022-07-29T09:36:51;0.80;;;0.57;;
18320;SDS011;54904;54.350;18.664;2022-07-29T09:39:28;0.80;;;0.60;;
18320;SDS011;54904;54.350;18.664;2022-07-29T09:41:59;0.57;;;0.57;;
18320;SDS011;54904;54.350;18.664;2022-07-29T09:44:27;0.60;;;0.60;;
18320;SDS011;54904;54.350;18.664;2022-07-29T09:47:07;0.60;;;0.60;;
18320;SDS011;54904;54.350;18.664;2022-07-29T09:49:35;1.85;;;0.50;;
18320;SDS011;54904;54.350;18.664;2022-07-29T09:52:17;0.60;;;0.60;;
18320;SDS011;54904;54.350;18.664;2022-07-29T09:54:44;0.60;;;0.60;;
18320;SDS011;54904;54.350;18.664;2022-07-29T09:57:21;1.73;;;0.70;;
18320;SDS011;54904;54.350;18.664;2022-07-29T09:59:55;0.73;;;0.52;;
18320;SDS011;54904;54.350;18.664;2022-07-29T10:02:27;2.75;;;0.60;;
18320;SDS011;54904;54.350;18.664;2022-07-29T10:04:55;0.60;;;0.60;;
18320;SDS011;54904;54.350;18.664;2022-07-29T10:07:24;0.90;;;0.90;;
18320;SDS011;54904;54.350;18.664;2022-07-29T10:09:56;0.82;;;0.82;;
18320;SDS011;54904;54.350;18.664;2022-07-29T10:12:23;0.60;;;0.60;;
18320;SDS011;54904;54.350;18.664;2022-07-29T10:14:50;0.50;;;0.50;;
18320;SDS011;54904;54.350;18.664;2022-07-29T10:17:18;0.70;;;0.70;;
18320;SDS011;54904;54.350;18.664;2022-07-29T10:19:45;0.95;;;0.60;;
18320;SDS011;54904;54.350;18.664;2022-07-29T10:22:14;0.60;;;0.60;;
18320;SDS011;54904;54.350;18.664;2022-07-29T10:24:42;1.02;;;1.02;;
18320;SDS011;54904;54.350;18.664;2022-07-29T10:27:10;0.65;;;0.65;;
18320;SDS011;54904;54.350;18.664;2022-07-29T10:29:37;0.60;;;0.60;;
18320;SDS011;54904;54.350;18.664;2022-07-29T10:32:16;0.60;;;0.60;;
18320;SDS011;54904;54.350;18.664;2022-07-29T10:34:56;0.60;;;0.60;;
18320;SDS011;54904;54.350;18.664;2022-07-29T10:37:35;7.45;;;0.80;;
18320;SDS011;54904;54.350;18.664;2022-07-29T10:40:15;0.50;;;0.50;;
18320;SDS011;54904;54.350;18.664;2022-07-29T10:43:16;2.92;;;1.02;;
18320;SDS011;54904;54.350;18.664;2022-07-29T10:45:47;0.98;;;0.98;;
18320;SDS011;54904;54.350;18.664;2022-07-29T10:48:15;1.40;;;1.00;;
18320;SDS011;54904;54.350;18.664;2022-07-29T10:50:51;0.50;;;0.50;;
18320;SDS011;54904;54.350;18.664;2022-07-29T10:53:20;0.60;;;0.60;;
18320;SDS011;54904;54.350;18.664;2022-07-29T10:55:49;2.05;;;0.63;;
18320;SDS011;54904;54.350;18.664;2022-07-29T10:58:18;0.50;;;0.50;;
18320;SDS011;54904;54.350;18.664;2022-07-29T11:00:46;0.88;;;0.88;;
18320;SDS011;54904;54.350;18.664;2022-07-29T11:06:11;0.60;;;0.60;;
18320;SDS011;54904;54.350;18.664;2022-07-29T11:08:38;0.80;;;0.80;;
18320;SDS011;54904;54.350;18.664;2022-07-29T11:13:58;0.68;;;0.68;;
18320;SDS011;54904;54.350;18.664;2022-07-29T11:16:26;0.57;;;0.57;;
18320;SDS011;54904;54.350;18.664;2022-07-29T11:19:29;0.60;;;0.60;;
18320;SDS011;54904;54.350;18.664;2022-07-29T11:21:57;0.98;;;0.63;;
18320;SDS011;54904;54.350;18.664;2022-07-29T11:24:25;0.50;;;0.50;;
18320;SDS011;54904;54.350;18.664;2022-07-29T11:27:11;2.85;;;0.50;;
18320;SDS011;54904;54.350;18.664;2022-07-29T11:29:47;0.45;;;0.45;;
18320;SDS011;54904;54.350;18.664;2022-07-29T11:32:19;0.70;;;0.70;;
18320;SDS011;54904;54.350;18.664;2022-07-29T11:34:47;0.60;;;0.60;;
18320;SDS011;54904;54.350;18.664;2022-07-29T11:37:19;0.70;;;0.68;;
18320;SDS011;54904;54.350;18.664;2022-07-29T11:42:49;0.50;;;0.50;;
18320;SDS011;54904;54.350;18.664;2022-07-29T11:45:17;0.70;;;0.70;;
18320;SDS011;54904;54.350;18.664;2022-07-29T11:47:50;0.80;;;0.80;;
18320;SDS011;54904;54.350;18.664;2022-07-29T11:50:32;0.93;;;0.93;;
18320;SDS011;54904;54.350;18.664;2022-07-29T11:53:01;2.72;;;2.17;;
18320;SDS011;54904;54.350;18.664;2022-07-29T11:55:36;1.20;;;1.10;;
18320;SDS011;54904;54.350;18.664;2022-07-29T11:58:05;0.70;;;0.70;;
18320;SDS011;54904;54.350;18.664;2022-07-29T12:00:33;0.60;;;0.60;;
18320;SDS011;54904;54.350;18.664;2022-07-29T12:03:04;0.52;;;0.52;;
18320;SDS011;54904;54.350;18.664;2022-07-29T12:05:34;0.60;;;0.60;;
18320;SDS011;54904;54.350;18.664;2022-07-29T12:08:06;0.50;;;0.50;;
18320;SDS011;54904;54.350;18.664;2022-07-29T12:10:41;0.65;;;0.65;;
18320;SDS011;54904;54.350;18.664;2022-07-29T12:13:10;0.70;;;0.70;;
18320;SDS011;54904;54.350;18.664;2022-07-29T12:15:38;0.60;;;0.60;;
18320;SDS011;54904;54.350;18.664;2022-07-29T12:18:12;0.50;;;0.50;;
18320;SDS011;54904;54.350;18.664;2022-07-29T12:20:41;1.13;;;0.60;;
18320;SDS011;54904;54.350;18.664;2022-07-29T12:23:10;0.40;;;0.40;;
18320;SDS011;54904;54.350;18.664;2022-07-29T12:25:42;0.57;;;0.57;;
18320;SDS011;54904;54.350;18.664;2022-07-29T12:28:12;0.50;;;0.50;;
18320;SDS011;54904;54.350;18.664;2022-07-29T12:30:44;0.60;;;0.60;;
18320;SDS011;54904;54.350;18.664;2022-07-29T12:33:17;2.38;;;0.60;;
18320;SDS011;54904;54.350;18.664;2022-07-29T12:35:47;10.15;;;0.60;;
18320;SDS011;54904;54.350;18.664;2022-07-29T12:38:16;0.50;;;0.50;;
18320;SDS011;54904;54.350;18.664;2022-07-29T12:40:43;0.50;;;0.50;;
18320;SDS011;54904;54.350;18.664;2022-07-29T12:43:13;1.85;;;0.55;;
18320;SDS011;54904;54.350;18.664;2022-07-29T12:45:44;1.15;;;0.50;;
18320;SDS011;54904;54.350;18.664;2022-07-29T12:48:12;1.17;;;0.70;;
18320;SDS011;54904;54.350;18.664;2022-07-29T12:50:52;0.50;;;0.50;;
18320;SDS011;54904;54.350;18.664;2022-07-29T12:53:21;0.35;;;0.35;;
18320;SDS011;54904;54.350;18.664;2022-07-29T12:55:49;1.17;;;0.70;;
18320;SDS011;54904;54.350;18.664;2022-07-29T12:58:29;2.05;;;0.70;;
18320;SDS011;54904;54.350;18.664;2022-07-29T13:01:00;0.70;;;0.70;;
18320;SDS011;54904;54.350;18.664;2022-07-29T13:03:44;0.57;;;0.57;;
18320;SDS011;54904;54.350;18.664;2022-07-29T13:09:04;0.63;;;0.60;;
18320;SDS011;54904;54.350;18.664;2022-07-29T13:11:34;0.68;;;0.68;;
18320;SDS011;54904;54.350;18.664;2022-07-29T13:14:03;0.70;;;0.70;;
18320;SDS011;54904;54.350;18.664;2022-07-29T13:16:33;0.60;;;0.60;;
18320;SDS011;54904;54.350;18.664;2022-07-29T13:19:09;2.15;;;0.60;;
18320;SDS011;54904;54.350;18.664;2022-07-29T13:21:37;0.50;;;0.50;;
18320;SDS011;54904;54.350;18.664;2022-07-29T13:24:05;0.50;;;0.50;;
18320;SDS011;54904;54.350;18.664;2022-07-29T13:26:33;0.70;;;0.70;;
18320;SDS011;54904;54.350;18.664;2022-07-29T13:29:01;0.70;;;0.70;;
18320;SDS011;54904;54.350;18.664;2022-07-29T13:31:30;0.50;;;0.50;;
18320;SDS011;54904;54.350;18.664;2022-07-29T13:33:57;0.73;;;0.73;;
18320;SDS011;54904;54.350;18.664;2022-07-29T13:36:24;0.70;;;0.70;;
18320;SDS011;54904;54.350;18.664;2022-07-29T13:38:51;0.70;;;0.70;;
18320;SDS011;54904;54.350;18.664;2022-07-29T13:41:18;0.70;;;0.70;;
18320;SDS011;54904;54.350;18.664;2022-07-29T13:43:46;0.60;;;0.60;;
18320;SDS011;54904;54.350;18.664;2022-07-29T13:46:14;1.38;;;0.60;;
18320;SDS011;54904;54.350;18.664;2022-07-29T13:48:41;0.50;;;0.50;;
18320;SDS011;54904;54.350;18.664;2022-07-29T13:51:08;1.17;;;0.60;;
18320;SDS011;54904;54.350;18.664;2022-07-29T13:53:35;0.50;;;0.50;;
18320;SDS011;54904;54.350;18.664;2022-07-29T13:56:02;0.68;;;0.50;;
18320;SDS011;54904;54.350;18.664;2022-07-29T13:58:31;0.50;;;0.50;;
18320;SDS011;54904;54.350;18.664;2022-07-29T14:00:58;0.50;;;0.50;;
18320;SDS011;54904;54.350;18.664;2022-07-29T14:03:27;0.40;;;0.40;;
18320;SDS011;54904;54.350;18.664;2022-07-29T14:05:54;0.57;;;0.57;;
18320;SDS011;54904;54.350;18.664;2022-07-29T14:08:21;1.75;;;0.70;;
18320;SDS011;54904;54.350;18.664;2022-07-29T14:10:49;0.60;;;0.60;;
18320;SDS011;54904;54.350;18.664;2022-07-29T14:13:16;0.75;;;0.75;;
18320;SDS011;54904;54.350;18.664;2022-07-29T14:15:43;2.90;;;0.77;;
18320;SDS011;54904;54.350;18.664;2022-07-29T14:18:10;0.50;;;0.50;;
18320;SDS011;54904;54.350;18.664;2022-07-29T14:20:38;1.55;;;0.70;;
18320;SDS011;54904;54.350;18.664;2022-07-29T14:23:05;0.73;;;0.60;;
18320;SDS011;54904;54.350;18.664;2022-07-29T14:25:32;0.60;;;0.60;;
18320;SDS011;54904;54.350;18.664;2022-07-29T14:27:59;5.13;;;0.85;;
18320;SDS011;54904;54.350;18.664;2022-07-29T14:30:26;0.60;;;0.60;;
18320;SDS011;54904;54.350;18.664;2022-07-29T14:32:53;1.00;;;0.60;;
18320;SDS011;54904;54.350;18.664;2022-07-29T14:35:20;0.60;;;0.60;;
18320;SDS011;54904;54.350;18.664;2022-07-29T14:37:48;2.15;;;1.95;;
18320;SDS011;54904;54.350;18.664;2022-07-29T14:40:15;2.38;;;1.73;;
18320;SDS011;54904;54.350;18.664;2022-07-29T14:42:42;1.17;;;1.08;;
18320;SDS011;54904;54.350;18.664;2022-07-29T14:45:09;0.80;;;0.80;;
18320;SDS011;54904;54.350;18.664;2022-07-29T14:47:37;0.65;;;0.65;;
18320;SDS011;54904;54.350;18.664;2022-07-29T14:50:05;0.50;;;0.50;;
18320;SDS011;54904;54.350;18.664;2022-07-29T14:52:33;4.68;;;0.65;;
18320;SDS011;54904;54.350;18.664;2022-07-29T14:55:02;0.60;;;0.52;;
18320;SDS011;54904;54.350;18.664;2022-07-29T14:57:29;0.70;;;0.70;;